sensor_id;sensor_type;location;lat;lon;timestamp;temperature;humidity
5868;DHT22;2960;49.142;7.768;2022-12-18T00:00:59;-5.80;51.00
5868;DHT22;2960;49.142;7.768;2022-12-18T00:03:28;-5.90;50.90
5868;DHT22;2960;49.142;7.768;2022-12-18T00:05:56;-5.90;50.90
5868;DHT22;2960;49.142;7.768;2022-12-18T00:08:24;-5.90;50.90
5868;DHT22;2960;49.142;7.768;2022-12-18T00:10:51;-5.90;50.90
5868;DHT22;2960;49.142;7.768;2022-12-18T00:13:18;-5.90;51.40
5868;DHT22;2960;49.142;7.768;2022-12-18T00:15:45;-5.90;50.90
5868;DHT22;2960;49.142;7.768;2022-12-18T00:18:12;-5.90;51.00
5868;DHT22;2960;49.142;7.768;2022-12-18T00:20:39;-5.90;50.90
5868;DHT22;2960;49.142;7.768;2022-12-18T00:23:08;-5.90;51.10
5868;DHT22;2960;49.142;7.768;2022-12-18T00:25:35;-5.90;51.00
5868;DHT22;2960;49.142;7.768;2022-12-18T00:28:03;-6.00;50.90
5868;DHT22;2960;49.142;7.768;2022-12-18T00:30:31;-6.00;51.00
5868;DHT22;2960;49.142;7.768;2022-12-18T00:32:58;-6.00;51.50
5868;DHT22;2960;49.142;7.768;2022-12-18T00:35:25;-6.00;50.90
5868;DHT22;2960;49.142;7.768;2022-12-18T00:37:52;-6.00;50.90
5868;DHT22;2960;49.142;7.768;2022-12-18T00:40:20;-6.00;51.50
5868;DHT22;2960;49.142;7.768;2022-12-18T00:42:48;-6.00;50.90
5868;DHT22;2960;49.142;7.768;2022-12-18T00:45:23;-6.00;51.00
5868;DHT22;2960;49.142;7.768;2022-12-18T00:47:50;-6.00;50.90
5868;DHT22;2960;49.142;7.768;2022-12-18T00:50:18;-6.00;51.00
5868;DHT22;2960;49.142;7.768;2022-12-18T00:52:45;-6.00;51.00
5868;DHT22;2960;49.142;7.768;2022-12-18T00:55:13;-6.00;51.00
5868;DHT22;2960;49.142;7.768;2022-12-18T00:57:41;-6.00;51.00
5868;DHT22;2960;49.142;7.768;2022-12-18T01:00:12;-6.00;51.60
5868;DHT22;2960;49.142;7.768;2022-12-18T01:02:41;-6.00;51.10
5868;DHT22;2960;49.142;7.768;2022-12-18T01:05:09;-6.00;51.10
5868;DHT22;2960;49.142;7.768;2022-12-18T01:07:41;-6.00;51.10
5868;DHT22;2960;49.142;7.768;2022-12-18T01:10:10;-6.00;51.10
5868;DHT22;2960;49.142;7.768;2022-12-18T01:12:39;-6.00;51.70
5868;DHT22;2960;49.142;7.768;2022-12-18T01:15:09;-6.00;51.10
5868;DHT22;2960;49.142;7.768;2022-12-18T01:17:37;-6.10;51.10
5868;DHT22;2960;49.142;7.768;2022-12-18T01:20:05;-6.10;51.10
5868;DHT22;2960;49.142;7.768;2022-12-18T01:22:33;-6.10;51.20
5868;DHT22;2960;49.142;7.768;2022-12-18T01:25:00;-6.10;51.20
5868;DHT22;2960;49.142;7.768;2022-12-18T01:27:27;-6.10;51.20
5868;DHT22;2960;49.142;7.768;2022-12-18T01:29:56;-6.10;51.20
5868;DHT22;2960;49.142;7.768;2022-12-18T01:32:23;-6.10;51.20
5868;DHT22;2960;49.142;7.768;2022-12-18T01:34:50;-6.10;51.20
5868;DHT22;2960;49.142;7.768;2022-12-18T01:37:17;-6.10;51.30
5868;DHT22;2960;49.142;7.768;2022-12-18T01:39:44;-6.10;51.30
5868;DHT22;2960;49.142;7.768;2022-12-18T01:42:13;-6.10;51.30
5868;DHT22;2960;49.142;7.768;2022-12-18T01:45:05;-6.10;51.40
5868;DHT22;2960;49.142;7.768;2022-12-18T01:47:38;-6.10;51.40
5868;DHT22;2960;49.142;7.768;2022-12-18T01:50:09;-6.10;51.50
5868;DHT22;2960;49.142;7.768;2022-12-18T01:52:37;-6.10;51.50
5868;DHT22;2960;49.142;7.768;2022-12-18T01:55:07;-6.20;51.40
5868;DHT22;2960;49.142;7.768;2022-12-18T01:57:35;-6.20;51.40
5868;DHT22;2960;49.142;7.768;2022-12-18T02:00:07;-6.20;51.40
5868;DHT22;2960;49.142;7.768;2022-12-18T02:02:37;-6.20;51.40
5868;DHT22;2960;49.142;7.768;2022-12-18T02:05:07;-6.20;51.40
5868;DHT22;2960;49.142;7.768;2022-12-18T02:07:42;-6.20;51.50
5868;DHT22;2960;49.142;7.768;2022-12-18T02:10:17;-6.20;51.60
5868;DHT22;2960;49.142;7.768;2022-12-18T02:12:49;-6.20;51.50
5868;DHT22;2960;49.142;7.768;2022-12-18T02:15:26;-6.30;51.50
5868;DHT22;2960;49.142;7.768;2022-12-18T02:18:02;-6.30;51.60
5868;DHT22;2960;49.142;7.768;2022-12-18T02:20:36;-6.30;51.60
5868;DHT22;2960;49.142;7.768;2022-12-18T02:23:12;-6.20;51.60
5868;DHT22;2960;49.142;7.768;2022-12-18T02:26:04;-6.20;51.60
5868;DHT22;2960;49.142;7.768;2022-12-18T02:28:36;-6.20;51.60
5868;DHT22;2960;49.142;7.768;2022-12-18T02:31:11;-6.20;51.70
5868;DHT22;2960;49.142;7.768;2022-12-18T02:33:40;-6.20;51.70
5868;DHT22;2960;49.142;7.768;2022-12-18T02:36:11;-6.20;51.70
5868;DHT22;2960;49.142;7.768;2022-12-18T02:38:39;-6.20;51.80
5868;DHT22;2960;49.142;7.768;2022-12-18T02:41:10;-6.20;51.70
5868;DHT22;2960;49.142;7.768;2022-12-18T02:43:45;-6.20;51.70
5868;DHT22;2960;49.142;7.768;2022-12-18T02:46:28;-6.20;51.30
5868;DHT22;2960;49.142;7.768;2022-12-18T02:49:08;-6.20;51.70
5868;DHT22;2960;49.142;7.768;2022-12-18T02:51:50;-6.20;51.80
5868;DHT22;2960;49.142;7.768;2022-12-18T02:54:41;-6.20;51.80
5868;DHT22;2960;49.142;7.768;2022-12-18T02:57:22;-6.20;51.80
5868;DHT22;2960;49.142;7.768;2022-12-18T02:59:58;-6.20;51.80
5868;DHT22;2960;49.142;7.768;2022-12-18T03:02:33;-6.20;51.80
5868;DHT22;2960;49.142;7.768;2022-12-18T03:05:10;-6.30;51.80
5868;DHT22;2960;49.142;7.768;2022-12-18T03:07:46;-6.30;51.80
5868;DHT22;2960;49.142;7.768;2022-12-18T03:10:19;-6.30;51.80
5868;DHT22;2960;49.142;7.768;2022-12-18T03:12:54;-6.30;51.80
5868;DHT22;2960;49.142;7.768;2022-12-18T03:15:29;-6.30;51.90
5868;DHT22;2960;49.142;7.768;2022-12-18T03:18:02;-6.30;52.50
5868;DHT22;2960;49.142;7.768;2022-12-18T03:20:34;-6.30;52.00
5868;DHT22;2960;49.142;7.768;2022-12-18T03:23:07;-6.30;52.00
5868;DHT22;2960;49.142;7.768;2022-12-18T03:25:40;-6.30;52.00
5868;DHT22;2960;49.142;7.768;2022-12-18T03:28:12;-6.30;52.00
5868;DHT22;2960;49.142;7.768;2022-12-18T03:30:43;-6.40;52.00
5868;DHT22;2960;49.142;7.768;2022-12-18T03:33:15;-6.40;52.00
5868;DHT22;2960;49.142;7.768;2022-12-18T03:35:45;-6.40;52.10
5868;DHT22;2960;49.142;7.768;2022-12-18T03:38:13;-6.30;52.30
5868;DHT22;2960;49.142;7.768;2022-12-18T03:40:53;-6.30;52.20
5868;DHT22;2960;49.142;7.768;2022-12-18T03:43:35;-6.30;52.20
5868;DHT22;2960;49.142;7.768;2022-12-18T03:46:14;-6.40;52.10
5868;DHT22;2960;49.142;7.768;2022-12-18T03:48:46;-6.40;52.10
5868;DHT22;2960;49.142;7.768;2022-12-18T03:51:17;-6.40;52.20
5868;DHT22;2960;49.142;7.768;2022-12-18T03:53:51;-6.40;52.30
5868;DHT22;2960;49.142;7.768;2022-12-18T03:56:24;-6.40;52.30
5868;DHT22;2960;49.142;7.768;2022-12-18T03:58:55;-6.40;52.30
5868;DHT22;2960;49.142;7.768;2022-12-18T04:01:28;-6.40;52.40
5868;DHT22;2960;49.142;7.768;2022-12-18T04:03:59;-6.40;52.40
5868;DHT22;2960;49.142;7.768;2022-12-18T04:06:28;-6.40;52.50
5868;DHT22;2960;49.142;7.768;2022-12-18T04:08:56;-6.40;52.60
5868;DHT22;2960;49.142;7.768;2022-12-18T04:11:24;-6.30;52.70
5868;DHT22;2960;49.142;7.768;2022-12-18T04:13:57;-6.30;52.70
5868;DHT22;2960;49.142;7.768;2022-12-18T04:16:24;-6.30;52.70
5868;DHT22;2960;49.142;7.768;2022-12-18T04:18:52;-6.30;52.80
5868;DHT22;2960;49.142;7.768;2022-12-18T04:21:19;-6.30;52.90
5868;DHT22;2960;49.142;7.768;2022-12-18T04:23:48;-6.20;53.60
5868;DHT22;2960;49.142;7.768;2022-12-18T04:26:17;-6.20;53.00
5868;DHT22;2960;49.142;7.768;2022-12-18T04:28:44;-6.20;53.10
5868;DHT22;2960;49.142;7.768;2022-12-18T04:31:13;-6.10;53.20
5868;DHT22;2960;49.142;7.768;2022-12-18T04:33:40;-6.10;53.30
5868;DHT22;2960;49.142;7.768;2022-12-18T04:36:07;-6.10;53.30
5868;DHT22;2960;49.142;7.768;2022-12-18T04:38:34;-6.10;53.20
5868;DHT22;2960;49.142;7.768;2022-12-18T04:41:01;-6.10;53.80
5868;DHT22;2960;49.142;7.768;2022-12-18T04:43:28;-6.10;53.30
5868;DHT22;2960;49.142;7.768;2022-12-18T04:46:01;-6.00;53.40
5868;DHT22;2960;49.142;7.768;2022-12-18T04:48:30;-6.00;53.50
5868;DHT22;2960;49.142;7.768;2022-12-18T04:50:58;-6.00;53.50
5868;DHT22;2960;49.142;7.768;2022-12-18T04:53:25;-6.00;53.50
5868;DHT22;2960;49.142;7.768;2022-12-18T04:56:02;-6.00;53.50
5868;DHT22;2960;49.142;7.768;2022-12-18T04:58:31;-6.10;53.50
5868;DHT22;2960;49.142;7.768;2022-12-18T05:00:58;-6.10;53.60
5868;DHT22;2960;49.142;7.768;2022-12-18T05:03:25;-6.10;53.60
5868;DHT22;2960;49.142;7.768;2022-12-18T05:05:53;-6.10;53.80
5868;DHT22;2960;49.142;7.768;2022-12-18T05:08:20;-6.10;53.70
5868;DHT22;2960;49.142;7.768;2022-12-18T05:10:48;-6.10;54.30
5868;DHT22;2960;49.142;7.768;2022-12-18T05:13:15;-6.10;53.70
5868;DHT22;2960;49.142;7.768;2022-12-18T05:15:42;-6.10;53.80
5868;DHT22;2960;49.142;7.768;2022-12-18T05:18:09;-6.10;53.70
5868;DHT22;2960;49.142;7.768;2022-12-18T05:20:36;-6.10;53.70
5868;DHT22;2960;49.142;7.768;2022-12-18T05:23:05;-6.10;53.70
5868;DHT22;2960;49.142;7.768;2022-12-18T05:25:32;-6.00;53.80
5868;DHT22;2960;49.142;7.768;2022-12-18T05:27:59;-6.10;53.70
5868;DHT22;2960;49.142;7.768;2022-12-18T05:30:26;-6.00;53.80
5868;DHT22;2960;49.142;7.768;2022-12-18T05:32:54;-6.00;53.90
5868;DHT22;2960;49.142;7.768;2022-12-18T05:35:23;-6.00;54.00
5868;DHT22;2960;49.142;7.768;2022-12-18T05:37:50;-6.00;54.00
5868;DHT22;2960;49.142;7.768;2022-12-18T05:40:19;-6.00;54.00
5868;DHT22;2960;49.142;7.768;2022-12-18T05:42:46;-6.00;54.00
5868;DHT22;2960;49.142;7.768;2022-12-18T05:45:13;-6.00;54.50
5868;DHT22;2960;49.142;7.768;2022-12-18T05:47:40;-5.90;54.00
5868;DHT22;2960;49.142;7.768;2022-12-18T05:50:08;-6.00;54.00
5868;DHT22;2960;49.142;7.768;2022-12-18T05:52:35;-6.00;54.00
5868;DHT22;2960;49.142;7.768;2022-12-18T05:55:02;-6.00;54.00
5868;DHT22;2960;49.142;7.768;2022-12-18T05:57:31;-6.00;54.00
5868;DHT22;2960;49.142;7.768;2022-12-18T05:59:58;-6.00;54.00
5868;DHT22;2960;49.142;7.768;2022-12-18T06:02:26;-6.00;54.00
5868;DHT22;2960;49.142;7.768;2022-12-18T06:04:53;-6.00;54.00
5868;DHT22;2960;49.142;7.768;2022-12-18T06:07:20;-6.10;53.90
5868;DHT22;2960;49.142;7.768;2022-12-18T06:09:47;-6.10;53.90
5868;DHT22;2960;49.142;7.768;2022-12-18T06:12:14;-6.10;53.90
5868;DHT22;2960;49.142;7.768;2022-12-18T06:14:42;-6.10;53.90
5868;DHT22;2960;49.142;7.768;2022-12-18T06:17:09;-6.10;53.90
5868;DHT22;2960;49.142;7.768;2022-12-18T06:19:36;-6.10;53.90
5868;DHT22;2960;49.142;7.768;2022-12-18T06:22:04;-6.20;53.90
5868;DHT22;2960;49.142;7.768;2022-12-18T06:24:31;-6.20;53.90
5868;DHT22;2960;49.142;7.768;2022-12-18T06:26:58;-6.20;54.00
5868;DHT22;2960;49.142;7.768;2022-12-18T06:29:25;-6.20;54.00
5868;DHT22;2960;49.142;7.768;2022-12-18T06:31:54;-6.20;54.00
5868;DHT22;2960;49.142;7.768;2022-12-18T06:34:21;-6.20;54.00
5868;DHT22;2960;49.142;7.768;2022-12-18T06:36:48;-6.20;54.00
5868;DHT22;2960;49.142;7.768;2022-12-18T06:39:15;-6.30;53.90
5868;DHT22;2960;49.142;7.768;2022-12-18T06:41:42;-6.20;54.00
5868;DHT22;2960;49.142;7.768;2022-12-18T06:44:10;-6.30;53.90
5868;DHT22;2960;49.142;7.768;2022-12-18T06:46:37;-6.20;54.20
5868;DHT22;2960;49.142;7.768;2022-12-18T06:49:06;-6.20;54.40
5868;DHT22;2960;49.142;7.768;2022-12-18T06:51:34;-6.20;54.20
5868;DHT22;2960;49.142;7.768;2022-12-18T06:54:02;-6.20;54.10
5868;DHT22;2960;49.142;7.768;2022-12-18T06:56:29;-6.20;54.10
5868;DHT22;2960;49.142;7.768;2022-12-18T06:58:57;-6.20;54.10
5868;DHT22;2960;49.142;7.768;2022-12-18T07:01:24;-6.20;54.10
5868;DHT22;2960;49.142;7.768;2022-12-18T07:03:52;-6.20;54.20
5868;DHT22;2960;49.142;7.768;2022-12-18T07:06:23;-6.20;54.20
5868;DHT22;2960;49.142;7.768;2022-12-18T07:08:52;-6.10;54.30
5868;DHT22;2960;49.142;7.768;2022-12-18T07:11:20;-6.20;54.20
5868;DHT22;2960;49.142;7.768;2022-12-18T07:13:47;-6.10;54.20
5868;DHT22;2960;49.142;7.768;2022-12-18T07:16:16;-6.10;54.20
5868;DHT22;2960;49.142;7.768;2022-12-18T07:18:45;-6.10;54.20
5868;DHT22;2960;49.142;7.768;2022-12-18T07:21:13;-6.10;54.30
5868;DHT22;2960;49.142;7.768;2022-12-18T07:23:43;-6.10;54.50
5868;DHT22;2960;49.142;7.768;2022-12-18T07:26:12;-6.00;54.60
5868;DHT22;2960;49.142;7.768;2022-12-18T07:28:40;-5.90;54.70
5868;DHT22;2960;49.142;7.768;2022-12-18T07:31:09;-5.80;54.70
5868;DHT22;2960;49.142;7.768;2022-12-18T07:33:37;-5.80;54.70
5868;DHT22;2960;49.142;7.768;2022-12-18T07:36:06;-5.70;54.70
5868;DHT22;2960;49.142;7.768;2022-12-18T07:38:35;-5.70;54.70
5868;DHT22;2960;49.142;7.768;2022-12-18T07:41:05;-5.60;54.80
5868;DHT22;2960;49.142;7.768;2022-12-18T07:43:34;-5.50;55.00
5868;DHT22;2960;49.142;7.768;2022-12-18T07:46:03;-5.50;55.00
5868;DHT22;2960;49.142;7.768;2022-12-18T07:48:30;-5.40;55.30
5868;DHT22;2960;49.142;7.768;2022-12-18T07:50:58;-5.40;55.30
5868;DHT22;2960;49.142;7.768;2022-12-18T07:53:26;-5.40;55.40
5868;DHT22;2960;49.142;7.768;2022-12-18T07:55:55;-5.30;55.60
5868;DHT22;2960;49.142;7.768;2022-12-18T07:58:25;-5.20;55.70
5868;DHT22;2960;49.142;7.768;2022-12-18T08:00:52;-5.20;55.80
5868;DHT22;2960;49.142;7.768;2022-12-18T08:03:19;-5.10;55.90
5868;DHT22;2960;49.142;7.768;2022-12-18T08:05:46;-5.10;55.90
5868;DHT22;2960;49.142;7.768;2022-12-18T08:08:15;-5.10;56.00
5868;DHT22;2960;49.142;7.768;2022-12-18T08:10:42;-5.00;56.20
5868;DHT22;2960;49.142;7.768;2022-12-18T08:13:09;-5.00;56.50
5868;DHT22;2960;49.142;7.768;2022-12-18T08:15:40;-5.00;57.20
5868;DHT22;2960;49.142;7.768;2022-12-18T08:18:07;-5.00;56.70
5868;DHT22;2960;49.142;7.768;2022-12-18T08:20:34;-5.00;56.70
5868;DHT22;2960;49.142;7.768;2022-12-18T08:23:01;-4.90;56.80
5868;DHT22;2960;49.142;7.768;2022-12-18T08:25:29;-4.90;57.00
5868;DHT22;2960;49.142;7.768;2022-12-18T08:27:56;-4.80;57.00
5868;DHT22;2960;49.142;7.768;2022-12-18T08:30:23;-4.80;57.50
5868;DHT22;2960;49.142;7.768;2022-12-18T08:32:52;-4.80;56.90
5868;DHT22;2960;49.142;7.768;2022-12-18T08:35:19;-4.70;57.00
5868;DHT22;2960;49.142;7.768;2022-12-18T08:37:47;-4.70;57.10
5868;DHT22;2960;49.142;7.768;2022-12-18T08:40:14;-4.70;57.70
5868;DHT22;2960;49.142;7.768;2022-12-18T08:42:41;-4.60;57.30
5868;DHT22;2960;49.142;7.768;2022-12-18T08:45:26;-4.60;57.40
5868;DHT22;2960;49.142;7.768;2022-12-18T08:47:54;-4.60;57.40
5868;DHT22;2960;49.142;7.768;2022-12-18T08:50:21;-4.60;57.50
5868;DHT22;2960;49.142;7.768;2022-12-18T08:52:49;-4.50;57.50
5868;DHT22;2960;49.142;7.768;2022-12-18T08:55:16;-4.50;57.50
5868;DHT22;2960;49.142;7.768;2022-12-18T08:57:43;-4.50;57.50
5868;DHT22;2960;49.142;7.768;2022-12-18T09:00:15;-4.40;57.60
5868;DHT22;2960;49.142;7.768;2022-12-18T09:02:42;-4.40;57.60
5868;DHT22;2960;49.142;7.768;2022-12-18T09:05:11;-4.40;57.50
5868;DHT22;2960;49.142;7.768;2022-12-18T09:07:38;-4.30;57.60
5868;DHT22;2960;49.142;7.768;2022-12-18T09:10:06;-4.40;57.70
5868;DHT22;2960;49.142;7.768;2022-12-18T09:12:33;-4.30;57.80
5868;DHT22;2960;49.142;7.768;2022-12-18T09:15:01;-4.30;57.70
5868;DHT22;2960;49.142;7.768;2022-12-18T09:17:28;-4.30;57.70
5868;DHT22;2960;49.142;7.768;2022-12-18T09:19:55;-4.30;57.70
5868;DHT22;2960;49.142;7.768;2022-12-18T09:22:23;-4.20;57.70
5868;DHT22;2960;49.142;7.768;2022-12-18T09:24:50;-4.20;57.70
5868;DHT22;2960;49.142;7.768;2022-12-18T09:27:17;-4.20;57.70
5868;DHT22;2960;49.142;7.768;2022-12-18T09:29:44;-4.10;57.70
5868;DHT22;2960;49.142;7.768;2022-12-18T09:32:12;-4.10;57.70
5868;DHT22;2960;49.142;7.768;2022-12-18T09:34:39;-4.10;58.30
5868;DHT22;2960;49.142;7.768;2022-12-18T09:37:06;-4.10;57.80
5868;DHT22;2960;49.142;7.768;2022-12-18T09:39:34;-4.00;57.90
5868;DHT22;2960;49.142;7.768;2022-12-18T09:42:01;-4.00;57.80
5868;DHT22;2960;49.142;7.768;2022-12-18T09:44:32;-4.00;57.80
5868;DHT22;2960;49.142;7.768;2022-12-18T09:47:06;-3.90;57.90
5868;DHT22;2960;49.142;7.768;2022-12-18T09:49:39;-3.90;57.80
5868;DHT22;2960;49.142;7.768;2022-12-18T09:52:13;-3.90;57.80
5868;DHT22;2960;49.142;7.768;2022-12-18T09:54:46;-3.80;57.80
5868;DHT22;2960;49.142;7.768;2022-12-18T09:57:19;-3.80;57.80
5868;DHT22;2960;49.142;7.768;2022-12-18T09:59:53;-3.70;57.90
5868;DHT22;2960;49.142;7.768;2022-12-18T10:02:24;-3.70;57.80
5868;DHT22;2960;49.142;7.768;2022-12-18T10:05:03;-3.70;57.80
5868;DHT22;2960;49.142;7.768;2022-12-18T10:07:41;-3.60;57.90
5868;DHT22;2960;49.142;7.768;2022-12-18T10:10:22;-3.60;57.90
5868;DHT22;2960;49.142;7.768;2022-12-18T10:12:59;-3.60;57.80
5868;DHT22;2960;49.142;7.768;2022-12-18T10:15:38;-3.60;57.80
5868;DHT22;2960;49.142;7.768;2022-12-18T10:18:20;-3.50;57.80
5868;DHT22;2960;49.142;7.768;2022-12-18T10:20:53;-3.40;57.90
5868;DHT22;2960;49.142;7.768;2022-12-18T10:23:26;-3.40;57.80
5868;DHT22;2960;49.142;7.768;2022-12-18T10:26:00;-3.30;57.90
5868;DHT22;2960;49.142;7.768;2022-12-18T10:28:30;-3.30;57.90
5868;DHT22;2960;49.142;7.768;2022-12-18T10:30:58;-3.20;58.40
5868;DHT22;2960;49.142;7.768;2022-12-18T10:33:29;-3.10;58.30
5868;DHT22;2960;49.142;7.768;2022-12-18T10:35:57;-3.00;58.30
5868;DHT22;2960;49.142;7.768;2022-12-18T10:38:26;-2.90;58.20
5868;DHT22;2960;49.142;7.768;2022-12-18T10:40:57;-2.90;58.10
5868;DHT22;2960;49.142;7.768;2022-12-18T10:43:26;-2.80;58.20
5868;DHT22;2960;49.142;7.768;2022-12-18T10:46:11;-2.80;58.10
5868;DHT22;2960;49.142;7.768;2022-12-18T10:48:48;-2.70;58.20
5868;DHT22;2960;49.142;7.768;2022-12-18T10:51:24;-2.70;58.20
5868;DHT22;2960;49.142;7.768;2022-12-18T10:53:56;-2.70;58.10
5868;DHT22;2960;49.142;7.768;2022-12-18T10:56:29;-2.80;58.00
5868;DHT22;2960;49.142;7.768;2022-12-18T10:58:59;-2.70;58.10
5868;DHT22;2960;49.142;7.768;2022-12-18T11:01:27;-2.80;58.00
5868;DHT22;2960;49.142;7.768;2022-12-18T11:04:07;-2.80;58.00
5868;DHT22;2960;49.142;7.768;2022-12-18T11:06:53;-2.60;58.20
5868;DHT22;2960;49.142;7.768;2022-12-18T11:09:23;-2.70;58.20
5868;DHT22;2960;49.142;7.768;2022-12-18T11:11:55;-2.70;58.20
5868;DHT22;2960;49.142;7.768;2022-12-18T11:14:28;-2.70;58.20
5868;DHT22;2960;49.142;7.768;2022-12-18T11:16:57;-2.70;58.20
5868;DHT22;2960;49.142;7.768;2022-12-18T11:19:33;-2.70;58.30
5868;DHT22;2960;49.142;7.768;2022-12-18T11:22:03;-2.60;58.40
5868;DHT22;2960;49.142;7.768;2022-12-18T11:24:53;-2.60;58.40
5868;DHT22;2960;49.142;7.768;2022-12-18T11:27:24;-2.60;58.40
5868;DHT22;2960;49.142;7.768;2022-12-18T11:29:51;-2.60;58.40
5868;DHT22;2960;49.142;7.768;2022-12-18T11:32:32;-2.60;58.30
5868;DHT22;2960;49.142;7.768;2022-12-18T11:35:12;-2.50;58.40
5868;DHT22;2960;49.142;7.768;2022-12-18T11:37:45;-2.50;58.40
5868;DHT22;2960;49.142;7.768;2022-12-18T11:40:18;-2.50;58.40
5868;DHT22;2960;49.142;7.768;2022-12-18T11:42:53;-2.50;58.40
5868;DHT22;2960;49.142;7.768;2022-12-18T11:45:28;-2.40;58.50
5868;DHT22;2960;49.142;7.768;2022-12-18T11:48:03;-2.40;58.50
5868;DHT22;2960;49.142;7.768;2022-12-18T11:50:41;-2.40;58.40
5868;DHT22;2960;49.142;7.768;2022-12-18T11:53:12;-2.30;58.50
5868;DHT22;2960;49.142;7.768;2022-12-18T11:55:45;-2.30;58.50
5868;DHT22;2960;49.142;7.768;2022-12-18T11:58:28;-2.30;58.50
5868;DHT22;2960;49.142;7.768;2022-12-18T12:01:09;-2.20;58.60
5868;DHT22;2960;49.142;7.768;2022-12-18T12:03:56;-2.30;58.50
5868;DHT22;2960;49.142;7.768;2022-12-18T12:06:37;-2.20;58.60
5868;DHT22;2960;49.142;7.768;2022-12-18T12:09:13;-2.20;58.60
5868;DHT22;2960;49.142;7.768;2022-12-18T12:11:54;-2.10;58.60
5868;DHT22;2960;49.142;7.768;2022-12-18T12:14:41;-2.10;58.60
5868;DHT22;2960;49.142;7.768;2022-12-18T12:17:19;-2.10;58.60
5868;DHT22;2960;49.142;7.768;2022-12-18T12:19:55;-2.00;58.70
5868;DHT22;2960;49.142;7.768;2022-12-18T12:22:35;-2.00;58.60
5868;DHT22;2960;49.142;7.768;2022-12-18T12:25:19;-2.00;58.70
5868;DHT22;2960;49.142;7.768;2022-12-18T12:28:01;-1.90;58.70
5868;DHT22;2960;49.142;7.768;2022-12-18T12:30:45;-1.90;58.70
5868;DHT22;2960;49.142;7.768;2022-12-18T12:33:29;-1.80;58.80
5868;DHT22;2960;49.142;7.768;2022-12-18T12:36:10;-1.80;58.80
5868;DHT22;2960;49.142;7.768;2022-12-18T12:38:43;-1.70;58.80
5868;DHT22;2960;49.142;7.768;2022-12-18T12:41:18;-1.70;58.70
5868;DHT22;2960;49.142;7.768;2022-12-18T12:44:04;-1.70;58.70
5868;DHT22;2960;49.142;7.768;2022-12-18T12:46:37;-1.60;58.70
5868;DHT22;2960;49.142;7.768;2022-12-18T12:49:11;-1.60;58.60
5868;DHT22;2960;49.142;7.768;2022-12-18T12:51:43;-1.50;58.60
5868;DHT22;2960;49.142;7.768;2022-12-18T12:54:16;-1.50;58.50
5868;DHT22;2960;49.142;7.768;2022-12-18T12:56:48;-1.40;58.50
5868;DHT22;2960;49.142;7.768;2022-12-18T12:59:24;-1.50;58.50
5868;DHT22;2960;49.142;7.768;2022-12-18T13:02:03;-1.40;58.50
5868;DHT22;2960;49.142;7.768;2022-12-18T13:04:38;-1.40;58.50
5868;DHT22;2960;49.142;7.768;2022-12-18T13:07:15;-1.40;58.50
5868;DHT22;2960;49.142;7.768;2022-12-18T13:13:02;-1.40;58.50
5868;DHT22;2960;49.142;7.768;2022-12-18T13:15:33;-1.40;58.50
5868;DHT22;2960;49.142;7.768;2022-12-18T13:18:13;-1.40;58.50
5868;DHT22;2960;49.142;7.768;2022-12-18T13:20:46;-1.40;58.50
5868;DHT22;2960;49.142;7.768;2022-12-18T13:23:30;-1.40;58.50
5868;DHT22;2960;49.142;7.768;2022-12-18T13:25:59;-1.40;58.50
5868;DHT22;2960;49.142;7.768;2022-12-18T13:29:00;-1.40;58.40
5868;DHT22;2960;49.142;7.768;2022-12-18T13:31:59;-1.50;58.40
5868;DHT22;2960;49.142;7.768;2022-12-18T13:34:29;-1.40;58.50
5868;DHT22;2960;49.142;7.768;2022-12-18T13:37:40;-1.50;58.50
5868;DHT22;2960;49.142;7.768;2022-12-18T13:43:36;-1.50;58.50
5868;DHT22;2960;49.142;7.768;2022-12-18T13:46:19;-1.50;58.60
5868;DHT22;2960;49.142;7.768;2022-12-18T13:49:00;-1.50;58.60
5868;DHT22;2960;49.142;7.768;2022-12-18T13:51:32;-1.50;58.50
5868;DHT22;2960;49.142;7.768;2022-12-18T13:54:02;-1.50;58.50
5868;DHT22;2960;49.142;7.768;2022-12-18T13:56:33;-1.50;58.50
5868;DHT22;2960;49.142;7.768;2022-12-18T13:59:13;-1.50;58.40
5868;DHT22;2960;49.142;7.768;2022-12-18T14:01:45;-1.50;58.50
5868;DHT22;2960;49.142;7.768;2022-12-18T14:04:20;-1.50;58.50
5868;DHT22;2960;49.142;7.768;2022-12-18T14:06:56;-1.50;59.00
5868;DHT22;2960;49.142;7.768;2022-12-18T14:09:27;-1.50;58.50
5868;DHT22;2960;49.142;7.768;2022-12-18T14:11:57;-1.60;58.40
5868;DHT22;2960;49.142;7.768;2022-12-18T14:14:41;-1.60;58.50
5868;DHT22;2960;49.142;7.768;2022-12-18T14:17:10;-1.60;58.50
5868;DHT22;2960;49.142;7.768;2022-12-18T14:19:42;-1.60;58.40
5868;DHT22;2960;49.142;7.768;2022-12-18T14:22:16;-1.60;58.40
5868;DHT22;2960;49.142;7.768;2022-12-18T14:24:44;-1.60;58.50
5868;DHT22;2960;49.142;7.768;2022-12-18T14:27:20;-1.60;58.40
5868;DHT22;2960;49.142;7.768;2022-12-18T14:29:50;-1.60;58.50
5868;DHT22;2960;49.142;7.768;2022-12-18T14:32:18;-1.60;58.40
5868;DHT22;2960;49.142;7.768;2022-12-18T14:34:47;-1.60;59.00
5868;DHT22;2960;49.142;7.768;2022-12-18T14:37:20;-1.60;58.40
5868;DHT22;2960;49.142;7.768;2022-12-18T14:39:56;-1.60;58.30
5868;DHT22;2960;49.142;7.768;2022-12-18T14:42:25;-1.60;58.30
5868;DHT22;2960;49.142;7.768;2022-12-18T14:48:06;-1.70;58.30
5868;DHT22;2960;49.142;7.768;2022-12-18T14:50:34;-1.70;58.20
5868;DHT22;2960;49.142;7.768;2022-12-18T14:53:03;-1.70;58.20
5868;DHT22;2960;49.142;7.768;2022-12-18T14:55:33;-1.80;58.20
5868;DHT22;2960;49.142;7.768;2022-12-18T14:58:01;-1.80;58.20
5868;DHT22;2960;49.142;7.768;2022-12-18T15:00:29;-1.80;58.20
5868;DHT22;2960;49.142;7.768;2022-12-18T15:02:57;-1.80;58.20
5868;DHT22;2960;49.142;7.768;2022-12-18T15:05:26;-1.80;58.20
5868;DHT22;2960;49.142;7.768;2022-12-18T15:07:55;-1.80;58.20
5868;DHT22;2960;49.142;7.768;2022-12-18T15:10:27;-1.80;58.70
5868;DHT22;2960;49.142;7.768;2022-12-18T15:13:08;-1.80;58.20
5868;DHT22;2960;49.142;7.768;2022-12-18T15:15:47;-1.80;58.20
5868;DHT22;2960;49.142;7.768;2022-12-18T15:18:16;-1.90;58.10
5868;DHT22;2960;49.142;7.768;2022-12-18T15:20:46;-1.90;58.10
5868;DHT22;2960;49.142;7.768;2022-12-18T15:23:18;-1.90;58.10
5868;DHT22;2960;49.142;7.768;2022-12-18T15:25:54;-1.90;58.20
5868;DHT22;2960;49.142;7.768;2022-12-18T15:28:25;-1.90;58.20
5868;DHT22;2960;49.142;7.768;2022-12-18T15:31:06;-2.00;58.10
5868;DHT22;2960;49.142;7.768;2022-12-18T15:33:49;-2.00;58.10
5868;DHT22;2960;49.142;7.768;2022-12-18T15:36:29;-2.00;58.10
5868;DHT22;2960;49.142;7.768;2022-12-18T15:38:57;-2.00;58.10
5868;DHT22;2960;49.142;7.768;2022-12-18T15:41:25;-2.00;58.20
5868;DHT22;2960;49.142;7.768;2022-12-18T15:43:53;-2.00;58.20
5868;DHT22;2960;49.142;7.768;2022-12-18T15:46:21;-2.00;58.20
5868;DHT22;2960;49.142;7.768;2022-12-18T15:48:50;-2.00;58.20
5868;DHT22;2960;49.142;7.768;2022-12-18T15:51:20;-2.00;58.20
5868;DHT22;2960;49.142;7.768;2022-12-18T15:53:51;-2.00;58.30
5868;DHT22;2960;49.142;7.768;2022-12-18T15:56:20;-2.00;58.20
5868;DHT22;2960;49.142;7.768;2022-12-18T15:59:09;-2.00;58.20
5868;DHT22;2960;49.142;7.768;2022-12-18T16:01:37;-2.00;58.20
5868;DHT22;2960;49.142;7.768;2022-12-18T16:04:05;-2.00;58.20
5868;DHT22;2960;49.142;7.768;2022-12-18T16:06:32;-2.00;58.20
5868;DHT22;2960;49.142;7.768;2022-12-18T16:08:59;-2.00;58.20
5868;DHT22;2960;49.142;7.768;2022-12-18T16:11:27;-2.00;58.20
5868;DHT22;2960;49.142;7.768;2022-12-18T16:14:16;-2.00;58.20
5868;DHT22;2960;49.142;7.768;2022-12-18T16:16:48;-1.90;58.30
5868;DHT22;2960;49.142;7.768;2022-12-18T16:19:16;-2.00;58.30
5868;DHT22;2960;49.142;7.768;2022-12-18T16:21:45;-2.00;58.30
5868;DHT22;2960;49.142;7.768;2022-12-18T16:24:15;-2.00;58.30
5868;DHT22;2960;49.142;7.768;2022-12-18T16:26:43;-2.00;58.30
5868;DHT22;2960;49.142;7.768;2022-12-18T16:29:12;-2.00;58.30
5868;DHT22;2960;49.142;7.768;2022-12-18T16:31:39;-1.90;58.40
5868;DHT22;2960;49.142;7.768;2022-12-18T16:34:19;-2.00;58.30
5868;DHT22;2960;49.142;7.768;2022-12-18T16:36:48;-2.00;58.30
5868;DHT22;2960;49.142;7.768;2022-12-18T16:39:15;-2.00;58.30